Time;durP1;ratioP1;P1;durP2;ratioP2;P2;SDS_P1;SDS_P2;PMS_P1;PMS_P2;Temp;Humidity;BMP_temperature;BMP_pressure;BME280_temperature;BME280_humidity;BME280_pressure;Samples;Min_cycle;Max_cycle;Signal;HPM_P1;HPM_P2
2023/07/05 00:03:23;;;;;;;3.95;1.60;;;;;;;22.24;62.58;100820.69;10413152;28;96545;-94
2023/07/05 00:08:34;;;;;;;3.20;1.30;;;;;;;22.40;62.57;100812.28;10424245;28;96641;-94
2023/07/05 00:13:43;;;;;;;2.40;1.48;;;;;;;22.23;62.51;100804.72;10390282;28;96537;-93
2023/07/05 00:18:49;;;;;;;2.58;1.50;;;;;;;21.81;63.94;100797.31;10377334;28;96689;-94
2023/07/05 00:23:57;;;;;;;2.83;1.20;;;;;;;22.26;62.48;100796.44;10376940;28;96822;-94
2023/07/05 00:29:05;;;;;;;2.90;1.38;;;;;;;22.12;62.72;100778.75;10374186;28;96492;-94
2023/07/05 00:34:10;;;;;;;4.50;1.55;;;;;;;22.22;62.62;100766.31;10376715;28;96731;-92
2023/07/05 00:39:21;;;;;;;2.47;1.40;;;;;;;22.30;62.40;100768.38;10377003;28;96486;-94
2023/07/05 00:44:29;;;;;;;1.77;1.00;;;;;;;22.25;62.14;100754.47;10376009;28;97128;-94
2023/07/05 00:49:36;;;;;;;3.58;1.20;;;;;;;21.99;63.04;100750.31;10380158;28;96707;-94
2023/07/05 00:54:48;;;;;;;2.58;1.40;;;;;;;22.08;62.62;100726.34;10345450;28;96761;-91
2023/07/05 00:59:58;;;;;;;2.35;1.35;;;;;;;22.09;62.46;100713.81;10345918;28;97644;-91
2023/07/05 01:05:03;;;;;;;3.20;1.40;;;;;;;22.09;62.53;100713.81;10382434;28;96605;-94
2023/07/05 01:10:18;;;;;;;2.53;1.27;;;;;;;21.88;63.31;100708.28;10405633;28;96576;-94
2023/07/05 01:15:42;;;;;;;1.30;1.10;;;;;;;21.47;64.61;100707.97;10417314;28;96652;-93
2023/07/05 01:20:56;;;;;;;1.55;1.20;;;;;;;21.57;64.60;100702.78;10391972;28;97153;-92
2023/07/05 01:26:45;;;;;;;2.33;1.50;;;;;;;21.54;64.55;100698.50;10375486;28;96640;-94
2023/07/05 01:32:11;;;;;;;1.92;1.13;;;;;;;21.55;64.16;100705.56;10344880;28;96931;-95
2023/07/05 01:37:30;;;;;;;1.98;1.02;;;;;;;21.61;64.06;100702.41;10360140;28;96688;-95
2023/07/05 01:42:37;;;;;;;2.45;1.05;;;;;;;21.73;63.62;100698.75;10355819;28;96611;-95
2023/07/05 01:47:53;;;;;;;1.73;1.30;;;;;;;21.81;63.53;100695.50;10356419;28;96670;-95
2023/07/05 01:53:06;;;;;;;2.42;1.38;;;;;;;21.79;63.58;100690.25;10368821;22;103766;-95
2023/07/05 01:58:13;;;;;;;3.45;1.40;;;;;;;21.83;63.33;100688.19;10312549;28;96833;-95
2023/07/05 02:03:23;;;;;;;3.35;1.10;;;;;;;21.72;64.07;100675.63;10323650;28;96855;-96
2023/07/05 02:08:30;;;;;;;3.00;1.50;;;;;;;21.69;63.85;100669.66;10324845;28;96854;-94
2023/07/05 02:13:34;;;;;;;1.80;1.20;;;;;;;21.50;64.64;100670.25;10316044;28;96601;-94
2023/07/05 02:18:38;;;;;;;4.20;1.30;;;;;;;21.36;65.35;100665.94;10310728;28;96592;-93
2023/07/05 02:23:42;;;;;;;1.80;1.08;;;;;;;21.18;65.42;100662.03;10305839;28;96701;-94
2023/07/05 02:28:45;;;;;;;1.77;1.20;;;;;;;21.14;65.52;100652.50;10283947;28;97040;-95
2023/07/05 02:33:50;;;;;;;2.17;1.10;;;;;;;21.03;66.04;100646.28;10294027;28;96874;-89
2023/07/05 02:38:55;;;;;;;2.53;1.38;;;;;;;20.82;66.87;100650.56;10293510;28;97102;-89
2023/07/05 02:44:00;;;;;;;1.55;0.85;;;;;;;20.82;66.61;100651.44;10291380;28;96781;-88
2023/07/05 02:49:07;;;;;;;;;;;;;;;20.64;68.42;100662.63;10293119;28;96810;-91
2023/07/05 02:54:13;;;;;;;3.60;1.30;;;;;;;20.53;67.71;100655.44;10291841;28;97233;-94
2023/07/05 02:59:17;;;;;;;;;;;;;;;20.64;67.57;100654.59;10293602;28;96717;-92
2023/07/05 03:04:27;;;;;;;2.95;1.27;;;;;;;20.77;66.25;100655.41;10302659;28;97758;-94
2023/07/05 03:09:34;;;;;;;1.85;1.17;;;;;;;20.87;66.04;100648.38;10319389;28;96807;-94
2023/07/05 03:14:43;;;;;;;1.38;0.90;;;;;;;21.11;65.62;100644.72;10313739;28;96712;-95
2023/07/05 03:19:57;;;;;;;2.63;1.20;;;;;;;20.96;66.26;100647.69;10358759;28;96545;-95
2023/07/05 03:25:03;;;;;;;3.72;1.05;;;;;;;21.18;65.67;100639.75;10371673;28;96588;-95
2023/07/05 03:30:13;;;;;;;2.92;1.38;;;;;;;21.24;65.54;100645.50;10368995;28;97356;-95
2023/07/05 03:35:29;;;;;;;1.40;1.00;;;;;;;21.03;66.39;100652.47;10344541;28;96429;-95
2023/07/05 03:40:39;;;;;;;2.55;1.50;;;;;;;21.17;65.93;100652.28;10331613;28;96547;-96
2023/07/05 03:45:45;;;;;;;1.85;1.02;;;;;;;21.37;65.08;100648.94;10331277;28;96642;-95
2023/07/05 03:50:57;;;;;;;1.63;1.10;;;;;;;21.28;65.64;100646.97;10330427;28;96663;-95
2023/07/05 03:56:11;;;;;;;2.00;1.10;;;;;;;21.08;66.24;100654.78;10314076;28;96758;-95
2023/07/05 04:01:20;;;;;;;1.95;1.05;;;;;;;21.11;65.96;100644.72;10332038;28;96554;-95
2023/07/05 04:06:35;;;;;;;1.70;1.10;;;;;;;20.99;66.43;100648.31;10332110;28;96461;-94
2023/07/05 04:11:40;;;;;;;2.45;1.00;;;;;;;21.14;66.25;100648.97;10365591;28;96395;-95
2023/07/05 04:16:47;;;;;;;2.05;1.00;;;;;;;21.25;65.90;100644.53;10368153;28;96617;-96
2023/07/05 04:21:57;;;;;;;2.25;1.42;;;;;;;21.34;65.61;100645.66;10369315;28;96585;-94
2023/07/05 04:27:04;;;;;;;2.92;1.10;;;;;;;21.30;65.78;100639.69;10349022;28;96715;-95
2023/07/05 04:32:11;;;;;;;1.83;0.90;;;;;;;21.02;66.73;100626.69;10326760;28;96525;-94
2023/07/05 04:37:19;;;;;;;1.80;1.08;;;;;;;20.93;67.02;100621.19;10323069;28;96603;-95
2023/07/05 04:42:37;;;;;;;2.45;1.30;;;;;;;20.93;66.78;100629.22;10329432;28;96618;-94
2023/07/05 04:47:43;;;;;;;1.70;1.08;;;;;;;20.87;66.90;100621.63;10301012;28;96782;-94
2023/07/05 04:52:50;;;;;;;1.65;0.80;;;;;;;20.92;66.57;100617.66;10316953;28;97235;-95
2023/07/05 04:57:55;;;;;;;3.00;1.00;;;;;;;20.56;67.58;100625.78;10304634;28;96745;-93
2023/07/05 05:03:01;;;;;;;1.77;0.90;;;;;;;20.44;67.97;100620.50;10332666;28;96962;-87
2023/07/05 05:08:09;;;;;;;1.55;1.10;;;;;;;20.28;68.96;100612.72;10335543;28;97235;-89
2023/07/05 05:13:14;;;;;;;3.25;1.10;;;;;;;20.18;68.90;100611.69;10338092;28;96714;-91
2023/07/05 05:18:19;;;;;;;1.92;0.90;;;;;;;20.05;69.65;100617.06;10317756;28;97098;-92
2023/07/05 05:23:29;;;;;;;1.20;0.80;;;;;;;20.07;69.14;100623.16;10296404;28;96732;-87
2023/07/05 05:28:34;;;;;;;2.25;0.98;;;;;;;20.09;69.27;100620.38;10298564;28;96744;-91
2023/07/05 05:33:38;;;;;;;2.35;1.40;;;;;;;20.15;69.87;100623.44;10296505;28;96623;-87
2023/07/05 05:38:47;;;;;;;2.67;1.33;;;;;;;20.20;69.58;100626.63;10294183;28;96806;-89
2023/07/05 05:43:51;;;;;;;2.90;1.55;;;;;;;20.20;69.60;100626.63;10298569;28;97338;-93
2023/07/05 05:49:00;;;;;;;2.70;1.20;;;;;;;20.27;69.76;100651.94;10313000;28;96748;-95
2023/07/05 05:54:12;;;;;;;2.83;1.10;;;;;;;20.15;70.16;100647.50;10322847;28;96743;-95
2023/07/05 05:59:17;;;;;;;1.77;1.00;;;;;;;20.38;69.40;100645.03;10332440;28;96629;-95
2023/07/05 06:04:22;;;;;;;1.85;1.10;;;;;;;20.58;68.59;100637.22;10333994;28;96646;-94
2023/07/05 06:09:29;;;;;;;2.03;1.20;;;;;;;20.78;68.56;100644.59;10319683;28;97030;-94
2023/07/05 06:14:34;;;;;;;2.10;1.02;;;;;;;20.97;68.21;100628.84;10322179;28;96871;-95
2023/07/05 06:19:42;;;;;;;2.65;1.10;;;;;;;21.05;68.04;100638.97;10321338;28;96719;-95
2023/07/05 06:24:53;;;;;;;2.60;1.38;;;;;;;20.97;68.09;100644.03;10323517;28;96721;-94
2023/07/05 06:30:02;;;;;;;2.30;1.10;;;;;;;20.93;68.41;100639.91;10375669;28;96586;-95
2023/07/05 06:35:09;;;;;;;1.83;1.20;;;;;;;21.22;67.58;100635.88;10358045;28;96473;-95
2023/07/05 06:40:25;;;;;;;1.10;0.98;;;;;;;21.10;68.39;100629.59;10376066;28;96533;-94
2023/07/05 06:45:40;;;;;;;1.83;1.00;;;;;;;20.99;68.77;100642.97;10375380;28;96566;-94
2023/07/05 06:50:56;;;;;;;2.78;1.10;;;;;;;21.06;68.59;100640.66;10358341;28;96436;-94
2023/07/05 06:56:04;;;;;;;2.25;1.25;;;;;;;20.96;69.21;100637.00;10327875;28;97040;-94
2023/07/05 07:01:09;;;;;;;1.77;1.15;;;;;;;21.11;68.59;100643.84;10323197;28;97527;-95
2023/07/05 07:06:16;;;;;;;4.07;1.77;;;;;;;21.12;69.15;100624.16;10307601;28;96623;-94
2023/07/05 07:11:29;;;;;;;3.08;1.70;;;;;;;21.28;68.90;100622.88;10315674;28;96862;-95
2023/07/05 07:16:33;;;;;;;2.78;1.40;;;;;;;21.33;69.02;100638.56;10330018;28;96654;-93
2023/07/05 07:21:38;;;;;;;1.92;1.40;;;;;;;21.50;68.66;100647.00;10341433;28;96589;-92
2023/07/05 07:26:46;;;;;;;1.67;1.08;;;;;;;21.61;68.15;100647.97;10355993;28;96918;-96
2023/07/05 07:31:52;;;;;;;3.53;1.40;;;;;;;21.70;68.06;100656.16;10349408;28;96923;-95
2023/07/05 07:37:01;;;;;;;1.90;1.10;;;;;;;22.12;67.35;100638.50;10325921;28;96476;-95
2023/07/05 07:42:27;;;;;;;2.72;1.30;;;;;;;22.27;65.91;100630.06;10327596;28;97190;-93
2023/07/05 07:47:35;;;;;;;2.03;1.20;;;;;;;22.44;65.92;100634.88;10323334;28;96830;-95
2023/07/05 07:52:42;;;;;;;2.72;1.25;;;;;;;22.73;65.09;100639.66;10321691;28;96977;-94
2023/07/05 07:57:51;;;;;;;1.55;1.17;;;;;;;22.91;64.64;100636.31;10304979;28;96832;-95
2023/07/05 08:02:56;;;;;;;2.35;1.13;;;;;;;23.08;64.33;100643.78;10315014;28;96641;-94
2023/07/05 08:08:00;;;;;;;2.22;1.20;;;;;;;23.25;63.90;100634.31;10301613;28;96617;-91
2023/07/05 08:13:09;;;;;;;1.73;0.95;;;;;;;23.47;63.20;100647.59;10306191;28;96871;-91
2023/07/05 08:18:13;;;;;;;1.98;1.17;;;;;;;23.89;62.60;100625.06;10301674;28;96736;-94
2023/07/05 08:23:17;;;;;;;;;;;;;;;24.13;61.73;100617.47;10303597;28;96630;-95
2023/07/05 08:28:27;;;;;;;1.40;1.00;;;;;;;24.32;61.16;100612.19;10302550;28;96597;-92
2023/07/05 08:33:33;;;;;;;2.13;1.08;;;;;;;24.57;60.03;100600.84;10300189;28;96908;-91
2023/07/05 08:38:55;;;;;;;2.53;1.38;;;;;;;24.67;59.72;100587.41;10299851;28;96696;-91
2023/07/05 08:44:27;;;;;;;1.23;0.80;;;;;;;25.15;57.98;100590.94;10304725;28;96893;-94
2023/07/05 08:49:35;;;;;;;1.70;1.05;;;;;;;25.65;57.12;100595.03;10300448;28;96639;-93
2023/07/05 08:54:41;;;;;;;2.90;1.05;;;;;;;25.55;57.37;100591.50;10303202;28;96599;-94
2023/07/05 08:59:52;;;;;;;1.20;0.90;;;;;;;25.46;57.37;100589.72;10305218;28;96694;-91
2023/07/05 09:04:58;;;;;;;1.80;1.15;;;;;;;25.74;57.03;100580.66;10302934;28;96822;-95
2023/07/05 09:10:12;;;;;;;2.03;1.20;;;;;;;25.78;56.94;100573.13;10301382;28;96669;-92
2023/07/05 09:15:22;;;;;;;2.55;0.95;;;;;;;25.71;56.57;100556.69;10312952;28;96781;-91
2023/07/05 09:20:41;;;;;;;1.73;1.00;;;;;;;26.20;54.85;100549.16;10342908;28;96856;-93
2023/07/05 09:25:48;;;;;;;2.03;1.00;;;;;;;26.43;53.64;100543.22;10342347;28;96765;-95
2023/07/05 09:31:01;;;;;;;1.85;1.00;;;;;;;26.95;52.80;100539.59;10348322;28;96539;-96
2023/07/05 09:36:11;;;;;;;1.25;0.90;;;;;;;27.13;52.24;100533.31;10299897;28;96767;-94
2023/07/05 09:41:20;;;;;;;1.45;1.00;;;;;;;27.16;51.91;100530.31;10306251;28;96987;-96
2023/07/05 09:46:34;;;;;;;0.85;0.77;;;;;;;27.06;50.17;100521.47;10304934;28;96715;-95
2023/07/05 09:51:44;;;;;;;2.20;1.00;;;;;;;27.58;49.81;100523.09;10304294;28;96821;-95
2023/07/05 09:57:01;;;;;;;1.33;0.77;;;;;;;27.62;48.63;100528.00;10302347;28;97420;-94
2023/07/05 10:02:19;;;;;;;0.80;0.65;;;;;;;27.35;48.53;100513.84;10300307;28;97289;-94
2023/07/05 10:07:26;;;;;;;0.90;0.60;;;;;;;27.64;48.23;100515.19;10303961;28;96672;-94
2023/07/05 10:12:36;;;;;;;1.30;0.70;;;;;;;27.51;46.90;100503.13;10300362;28;96615;-93
2023/07/05 10:17:46;;;;;;;0.85;0.65;;;;;;;27.82;46.16;100504.28;10294678;28;96798;-91
2023/07/05 10:23:01;;;;;;;0.90;0.60;;;;;;;28.35;45.15;100501.19;10295713;28;97136;-96
2023/07/05 10:28:07;;;;;;;0.93;0.70;;;;;;;28.64;45.28;100507.81;10301226;28;96818;-95
2023/07/05 10:33:20;;;;;;;0.57;0.38;;;;;;;28.87;45.13;100511.53;10295602;28;96734;-93
2023/07/05 10:38:28;;;;;;;1.25;1.00;;;;;;;29.03;44.84;100518.81;10304986;28;97207;-93
2023/07/05 10:43:35;;;;;;;0.80;0.60;;;;;;;29.49;43.71;100520.72;10303205;28;96934;-96
2023/07/05 10:48:45;;;;;;;0.80;0.70;;;;;;;29.34;44.02;100517.03;10293367;28;96883;-96
2023/07/05 10:53:54;;;;;;;1.63;1.00;;;;;;;29.56;43.05;100497.31;10303947;28;97350;-96
2023/07/05 10:59:16;;;;;;;0.60;0.60;;;;;;;29.70;43.14;100503.88;10295023;28;96748;-96
2023/07/05 11:04:25;;;;;;;0.73;0.60;;;;;;;29.96;42.84;100501.69;10292634;28;96562;-95
2023/07/05 11:09:35;;;;;;;0.70;0.70;;;;;;;29.88;42.41;100509.88;10291255;28;96629;-94
2023/07/05 11:14:39;;;;;;;0.70;0.47;;;;;;;30.57;41.25;100498.06;10296586;28;96836;-95
2023/07/05 11:19:45;;;;;;;0.85;0.55;;;;;;;30.93;40.56;100502.69;10298996;28;97168;-92
2023/07/05 11:24:52;;;;;;;0.80;0.45;;;;;;;31.14;39.86;100493.78;10296391;28;96707;-94
2023/07/05 11:29:59;;;;;;;0.98;0.52;;;;;;;31.06;39.43;100480.28;10297602;28;96714;-94
2023/07/05 11:35:11;;;;;;;0.88;0.50;;;;;;;31.01;40.46;100472.69;10296330;28;96905;-93
2023/07/05 11:41:04;;;;;;;1.40;0.80;;;;;;;30.70;40.09;100458.41;10301839;28;97195;-94
2023/07/05 11:46:52;;;;;;;1.17;0.60;;;;;;;30.21;41.09;100466.09;10295812;28;96698;-95
2023/07/05 11:52:13;;;;;;;1.10;0.70;;;;;;;30.09;41.46;100470.25;10294592;28;97078;-92
2023/07/05 11:57:19;;;;;;;1.05;0.60;;;;;;;29.95;41.98;100456.59;10295507;28;96707;-93
2023/07/05 12:02:35;;;;;;;1.40;0.93;;;;;;;30.08;42.38;100448.69;10296772;28;96852;-94
2023/07/05 12:07:45;;;;;;;1.05;0.63;;;;;;;29.71;42.60;100459.44;10325917;28;96883;-91
2023/07/05 12:12:49;;;;;;;1.23;0.80;;;;;;;29.73;42.71;100458.22;10332804;28;96695;-93
2023/07/05 12:17:54;;;;;;;1.02;0.93;;;;;;;29.99;42.30;100453.31;10334240;28;96692;-91
2023/07/05 12:23:04;;;;;;;1.10;0.63;;;;;;;30.35;40.96;100455.47;10338201;28;96881;-92
2023/07/05 12:28:16;;;;;;;1.10;0.77;;;;;;;30.79;39.60;100470.03;10336441;28;96614;-92
2023/07/05 12:33:23;;;;;;;1.73;0.55;;;;;;;30.97;40.32;100468.66;10337987;28;96666;-92
2023/07/05 12:38:32;;;;;;;1.00;0.90;;;;;;;31.02;40.65;100458.06;10337174;28;96676;-94
2023/07/05 12:43:38;;;;;;;1.33;0.80;;;;;;;31.31;40.56;100452.66;10332801;28;96806;-94
2023/07/05 12:48:44;;;;;;;2.30;1.10;;;;;;;31.12;40.28;100445.03;10318487;28;96657;-92
2023/07/05 12:54:00;;;;;;;1.85;1.10;;;;;;;31.15;40.67;100441.09;10290695;28;96773;-91
2023/07/05 12:59:07;;;;;;;2.60;1.15;;;;;;;31.43;40.31;100446.72;10291048;28;97904;-91
2023/07/05 13:04:35;;;;;;;3.22;1.58;;;;;;;31.25;40.87;100445.25;10299139;28;97062;-93
2023/07/05 13:09:43;;;;;;;4.30;1.80;;;;;;;31.15;41.13;100428.34;10302353;28;96736;-91
2023/07/05 13:14:59;;;;;;;2.25;1.48;;;;;;;30.96;40.96;100425.34;10299239;28;97079;-93
2023/07/05 13:20:15;;;;;;;2.03;1.63;;;;;;;31.11;41.37;100423.47;10300711;28;96930;-93
2023/07/05 13:25:32;;;;;;;2.25;1.60;;;;;;;31.02;41.95;100417.28;10301791;28;96678;-91
2023/07/05 13:30:46;;;;;;;1.52;1.30;;;;;;;30.67;41.70;100423.44;10305072;28;97090;-93
2023/07/05 13:35:51;;;;;;;2.13;1.65;;;;;;;30.81;41.90;100414.47;10302965;28;97424;-95
2023/07/05 13:41:02;;;;;;;2.35;1.65;;;;;;;30.91;42.50;100411.47;10301240;28;97543;-88
2023/07/05 13:46:10;;;;;;;2.42;1.73;;;;;;;30.91;42.42;100408.75;10298536;28;96802;-90
2023/07/05 13:51:25;;;;;;;3.35;1.38;;;;;;;30.59;42.19;100390.91;10299440;28;96897;-90
2023/07/05 13:56:32;;;;;;;4.18;2.00;;;;;;;30.61;42.40;100402.41;10299018;28;96941;-91
2023/07/05 14:01:38;;;;;;;2.22;1.67;;;;;;;30.77;42.50;100399.56;10300043;28;97132;-89
2023/07/05 14:06:43;;;;;;;3.10;1.73;;;;;;;31.00;42.23;100400.31;10303706;28;96566;-92
2023/07/05 14:11:50;;;;;;;2.53;1.40;;;;;;;30.66;42.18;100407.31;10299118;28;97740;-90
2023/07/05 14:16:54;;;;;;;2.53;1.40;;;;;;;30.99;41.73;100404.06;10298625;28;96634;-90
2023/07/05 14:21:58;;;;;;;2.67;1.38;;;;;;;30.55;42.34;100403.16;10301123;28;97073;-91
2023/07/05 14:27:22;;;;;;;1.75;1.35;;;;;;;30.43;41.67;100385.63;10377913;22;97073;-92
2023/07/05 14:32:26;;;;;;;2.17;1.30;;;;;;;31.18;41.29;100376.28;10378098;28;97155;-88
2023/07/05 14:37:29;;;;;;;1.90;1.30;;;;;;;31.14;40.85;100382.31;10378092;28;96656;-89
2023/07/05 14:42:34;;;;;;;3.25;1.30;;;;;;;31.01;40.57;100377.53;10378875;28;96912;-88
2023/07/05 14:47:37;;;;;;;1.77;0.82;;;;;;;30.96;40.34;100362.81;10377768;28;96641;-92
2023/07/05 14:52:40;;;;;;;;;;;;;;;30.98;38.56;100363.47;10376158;28;96556;-89
2023/07/05 14:58:02;;;;;;;0.93;0.70;;;;;;;30.86;39.45;100338.66;10373044;28;96710;-88
2023/07/05 15:03:09;;;;;;;1.83;0.63;;;;;;;31.23;38.27;100359.44;10379021;28;96822;-89
2023/07/05 15:08:13;;;;;;;2.90;0.90;;;;;;;30.71;37.89;100342.41;10379617;28;97711;-92
2023/07/05 15:13:42;;;;;;;0.88;0.63;;;;;;;30.48;37.63;100339.75;10398318;28;96910;-91
2023/07/05 15:18:48;;;;;;;1.73;0.65;;;;;;;30.75;37.49;100352.69;10421645;27;96887;-90
2023/07/05 15:23:54;;;;;;;1.25;0.90;;;;;;;31.26;36.52;100354.47;10377886;28;97913;-92
2023/07/05 15:29:01;;;;;;;1.05;0.65;;;;;;;30.96;35.81;100328.31;10391153;28;96738;-94
2023/07/05 15:34:04;;;;;;;1.10;0.60;;;;;;;31.17;36.00;100339.25;10420604;28;97098;-88
2023/07/05 15:39:07;;;;;;;;;;;;;;;31.13;34.77;100337.94;10424534;28;97564;-87
2023/07/05 15:44:16;;;;;;;1.27;0.50;;;;;;;31.31;36.10;100343.88;10421240;28;96747;-89
2023/07/05 15:49:38;;;;;;;0.98;0.82;;;;;;;30.86;35.97;100341.38;10422502;28;96715;-90
2023/07/05 15:54:44;;;;;;;0.90;0.60;;;;;;;30.30;37.54;100349.28;10383962;28;96745;-91
2023/07/05 15:59:57;;;;;;;1.42;0.60;;;;;;;29.96;39.31;100342.41;10378283;28;97252;-91
2023/07/05 16:05:03;;;;;;;1.70;0.88;;;;;;;30.05;39.97;100348.63;10405967;28;96764;-88
2023/07/05 16:10:10;;;;;;;1.63;0.82;;;;;;;29.71;41.28;100340.91;10420117;28;96817;-91
2023/07/05 16:15:17;;;;;;;1.80;1.05;;;;;;;29.66;42.21;100337.06;10419122;27;97890;-93
2023/07/05 16:20:22;;;;;;;1.48;0.70;;;;;;;29.67;41.78;100336.03;10405590;28;96758;-94
2023/07/05 16:25:27;;;;;;;1.63;0.77;;;;;;;29.66;42.25;100331.66;10379412;28;96878;-92
2023/07/05 16:30:34;;;;;;;1.13;0.70;;;;;;;29.54;42.40;100316.78;10379141;28;97106;-94
2023/07/05 16:35:41;;;;;;;2.70;1.13;;;;;;;29.22;43.23;100317.81;10378522;28;96797;-89
2023/07/05 16:40:46;;;;;;;1.08;0.50;;;;;;;29.37;42.80;100320.59;10427181;27;96688;-93
2023/07/05 16:45:59;;;;;;;0.98;0.70;;;;;;;29.39;43.19;100313.13;10427910;28;96707;-90
2023/07/05 16:51:07;;;;;;;1.38;0.70;;;;;;;28.98;43.49;100302.50;10428040;28;97092;-90
2023/07/05 16:56:12;;;;;;;1.10;0.80;;;;;;;29.10;43.43;100300.28;10398311;28;96684;-92
2023/07/05 17:01:19;;;;;;;1.85;0.90;;;;;;;29.14;43.33;100294.31;10384590;28;96617;-89
2023/07/05 17:06:24;;;;;;;0.85;0.63;;;;;;;29.07;43.65;100298.75;10385790;28;96608;-90
2023/07/05 17:11:29;;;;;;;0.90;0.60;;;;;;;28.94;43.67;100295.78;10396978;28;96703;-90
2023/07/05 17:16:37;;;;;;;1.92;0.85;;;;;;;29.08;43.21;100292.31;10424815;27;97317;-93
2023/07/05 17:21:42;;;;;;;0.82;0.55;;;;;;;28.93;43.39;100293.25;10395101;27;96840;-90
2023/07/05 17:26:47;;;;;;;0.75;0.60;;;;;;;29.19;43.27;100288.38;10383179;28;96938;-93
2023/07/05 17:32:13;;;;;;;1.10;0.73;;;;;;;28.92;43.17;100278.00;10377761;28;96780;-93
2023/07/05 17:37:19;;;;;;;1.17;0.60;;;;;;;28.94;43.55;100281.38;10382256;28;96750;-89
2023/07/05 17:42:25;;;;;;;0.93;0.70;;;;;;;28.72;43.94;100285.66;10381512;28;96549;-87
2023/07/05 17:47:32;;;;;;;0.68;0.50;;;;;;;28.75;43.94;100279.06;10383280;28;97523;-90
2023/07/05 17:52:36;;;;;;;2.58;0.80;;;;;;;28.42;44.34;100285.63;10379653;28;96864;-92
2023/07/05 17:57:40;;;;;;;1.35;0.80;;;;;;;28.34;44.90;100281.09;10382023;28;96758;-92
2023/07/05 18:02:49;;;;;;;1.10;0.63;;;;;;;28.12;45.24;100281.75;10382545;28;96661;-89
2023/07/05 18:08:11;;;;;;;0.85;0.43;;;;;;;27.74;45.38;100282.47;10384292;28;97372;-90
2023/07/05 18:13:34;;;;;;;0.90;0.60;;;;;;;27.91;45.40;100278.75;10375446;28;97178;-93
2023/07/05 18:18:43;;;;;;;1.02;0.63;;;;;;;27.76;46.10;100284.00;10390133;28;96714;-91
2023/07/05 18:23:49;;;;;;;0.80;0.63;;;;;;;27.62;45.74;100292.75;10340657;28;97588;-88
2023/07/05 18:28:55;;;;;;;1.10;0.47;;;;;;;27.59;45.52;100297.66;10339848;28;96641;-93
2023/07/05 18:34:03;;;;;;;1.15;0.73;;;;;;;27.58;45.62;100291.38;10340580;28;96770;-89
2023/07/05 18:39:11;;;;;;;1.40;0.82;;;;;;;27.44;45.65;100296.63;10379867;28;96738;-89
2023/07/05 18:44:16;;;;;;;1.23;0.73;;;;;;;27.43;46.27;100301.19;10380167;28;97733;-91
2023/07/05 18:49:24;;;;;;;1.00;0.63;;;;;;;27.26;46.51;100299.47;10380689;28;96962;-90
2023/07/05 18:54:28;;;;;;;0.63;0.52;;;;;;;27.04;46.87;100299.25;10402344;28;96836;-92
2023/07/05 18:59:33;;;;;;;0.65;0.60;;;;;;;27.01;47.41;100303.06;10421481;27;96595;-94
2023/07/05 19:04:42;;;;;;;0.98;0.63;;;;;;;26.84;48.11;100302.19;10420993;27;96694;-94
2023/07/05 19:09:47;;;;;;;0.75;0.50;;;;;;;26.78;48.31;100293.91;10421901;28;96677;-93
2023/07/05 19:14:52;;;;;;;1.45;0.40;;;;;;;26.64;48.94;100302.59;10423957;27;97221;-93
2023/07/05 19:19:59;;;;;;;1.05;0.55;;;;;;;26.43;49.21;100300.31;10404311;28;96674;-91
2023/07/05 19:25:04;;;;;;;1.45;0.80;;;;;;;26.27;49.64;100308.28;10381496;28;96748;-88
2023/07/05 19:30:09;;;;;;;0.40;0.40;;;;;;;26.23;50.18;100314.97;10383515;28;96804;-92
2023/07/05 19:35:34;;;;;;;1.40;0.60;;;;;;;26.14;50.81;100321.34;10383614;28;97718;-94
2023/07/05 19:40:41;;;;;;;0.93;0.70;;;;;;;26.04;50.93;100331.34;10384082;28;97439;-88
2023/07/05 19:45:47;;;;;;;0.40;0.40;;;;;;;25.88;51.27;100325.88;10382090;28;97106;-93
2023/07/05 19:50:54;;;;;;;1.02;0.65;;;;;;;25.70;51.86;100322.31;10382966;28;97317;-92
2023/07/05 19:55:59;;;;;;;0.88;0.60;;;;;;;25.61;51.90;100323.22;10384214;28;96915;-93
2023/07/05 20:01:06;;;;;;;0.95;0.52;;;;;;;25.43;52.14;100315.13;10384214;28;96572;-91
2023/07/05 20:06:13;;;;;;;0.57;0.52;;;;;;;25.28;52.59;100329.28;10383978;28;96939;-91
2023/07/05 20:11:19;;;;;;;0.95;0.50;;;;;;;25.13;52.54;100334.34;10385945;28;96836;-92
2023/07/05 20:16:24;;;;;;;1.10;0.52;;;;;;;25.06;52.58;100335.09;10390604;28;96710;-92
2023/07/05 20:21:33;;;;;;;0.77;0.50;;;;;;;24.92;52.82;100343.63;10430903;28;98199;-92
2023/07/05 20:26:38;;;;;;;0.93;0.63;;;;;;;24.79;52.81;100339.44;10400571;28;96673;-92
2023/07/05 20:31:42;;;;;;;0.90;0.45;;;;;;;24.76;52.94;100349.66;10392059;28;96677;-92
2023/07/05 20:36:50;;;;;;;0.95;0.40;;;;;;;24.73;52.64;100358.03;10416002;28;96617;-92
2023/07/05 20:41:54;;;;;;;0.50;0.40;;;;;;;24.78;52.51;100369.19;10434326;27;96467;-94
2023/07/05 20:47:00;;;;;;;1.00;0.45;;;;;;;24.74;52.24;100376.72;10436546;27;96768;-91
2023/07/05 20:52:26;;;;;;;0.30;0.30;;;;;;;24.60;52.25;100369.13;10432819;28;96706;-90
2023/07/05 20:57:32;;;;;;;1.10;0.50;;;;;;;24.65;52.07;100382.97;10433750;27;96741;-93
2023/07/05 21:02:38;;;;;;;1.27;0.40;;;;;;;24.48;52.54;100394.50;10433341;28;96780;-90
2023/07/05 21:07:49;;;;;;;0.55;0.30;;;;;;;24.42;52.27;100395.09;10431772;27;96741;-88
2023/07/05 21:12:54;;;;;;;0.93;0.50;;;;;;;24.40;52.63;100397.09;10354096;28;96822;-93
2023/07/05 21:17:59;;;;;;;0.63;0.40;;;;;;;24.32;52.79;100401.50;10346103;28;96710;-91
2023/07/05 21:23:07;;;;;;;0.30;0.30;;;;;;;24.25;52.86;100411.09;10346807;28;96718;-91
2023/07/05 21:28:14;;;;;;;1.50;0.55;;;;;;;24.10;53.18;100416.06;10410003;28;96670;-93
2023/07/05 21:33:18;;;;;;;0.35;0.30;;;;;;;24.13;53.01;100414.94;10436462;28;96822;-91
2023/07/05 21:38:27;;;;;;;0.77;0.47;;;;;;;24.10;53.36;100420.59;10449125;27;96632;-92
2023/07/05 21:43:50;;;;;;;1.00;0.60;;;;;;;23.86;54.23;100421.00;10425058;28;96610;-91
2023/07/05 21:48:54;;;;;;;0.82;0.30;;;;;;;23.99;53.83;100418.06;10400676;28;96705;-93
2023/07/05 21:54:01;;;;;;;0.63;0.20;;;;;;;23.85;54.29;100419.31;10380543;28;96580;-94
2023/07/05 21:59:06;;;;;;;0.50;0.40;;;;;;;23.78;54.44;100428.09;10355512;28;96937;-94
2023/07/05 22:04:11;;;;;;;1.20;0.55;;;;;;;23.48;55.23;100429.00;10395092;28;97288;-94
2023/07/05 22:09:17;;;;;;;1.33;0.47;;;;;;;23.59;54.97;100426.22;10401424;28;96679;-92
2023/07/05 22:14:21;;;;;;;0.35;0.28;;;;;;;23.58;55.20;100430.75;10396058;28;96687;-93
2023/07/05 22:19:33;;;;;;;0.88;0.57;;;;;;;23.58;55.27;100429.88;10399370;28;96969;-93
2023/07/05 22:24:41;;;;;;;0.80;0.50;;;;;;;23.42;55.87;100433.06;10394297;28;96858;-91
2023/07/05 22:29:46;;;;;;;0.68;0.38;;;;;;;23.27;56.40;100429.06;10400648;28;96809;-95
2023/07/05 22:34:50;;;;;;;0.60;0.47;;;;;;;23.05;57.23;100428.44;10390760;28;96965;-93
2023/07/05 22:40:16;;;;;;;0.90;0.50;;;;;;;22.88;58.11;100426.38;10380936;28;96655;-92
2023/07/05 22:45:20;;;;;;;1.15;0.68;;;;;;;22.91;57.68;100423.44;10390197;28;96626;-93
2023/07/05 22:50:23;;;;;;;0.98;0.55;;;;;;;22.89;57.98;100428.09;10401708;28;96686;-92
2023/07/05 22:55:29;;;;;;;0.97;0.67;;;;;;;22.80;58.30;100427.03;10440792;27;96527;-93
2023/07/05 23:00:32;;;;;;;1.17;0.63;;;;;;;22.76;58.60;100424.75;10430098;27;96837;-92
2023/07/05 23:05:35;;;;;;;0.57;0.57;;;;;;;22.85;58.32;100432.03;10438484;27;96735;-93
2023/07/05 23:10:40;;;;;;;1.10;0.70;;;;;;;22.69;58.81;100434.31;10422121;28;96750;-94
2023/07/05 23:15:44;;;;;;;1.33;0.63;;;;;;;22.72;58.63;100432.22;10430210;27;96770;-93
2023/07/05 23:20:48;;;;;;;0.82;0.50;;;;;;;22.81;58.54;100435.94;10398117;28;96476;-92
2023/07/05 23:25:54;;;;;;;0.50;0.50;;;;;;;22.77;58.92;100438.03;10383356;28;96824;-92
2023/07/05 23:31:02;;;;;;;2.05;0.82;;;;;;;22.71;59.21;100435.88;10381589;28;96626;-94
2023/07/05 23:36:24;;;;;;;1.25;0.70;;;;;;;22.55;59.46;100436.38;10389147;28;96699;-93
2023/07/05 23:41:32;;;;;;;0.77;0.60;;;;;;;22.52;60.02;100436.59;10383315;28;96705;-92
2023/07/05 23:46:39;;;;;;;0.65;0.63;;;;;;;22.41;60.08;100433.16;10384558;28;97378;-92